Time;durP1;ratioP1;P1;durP2;ratioP2;P2;SDS_P1;SDS_P2;PMS_P1;PMS_P2;Temp;Humidity;BMP_temperature;BMP_pressure;BME280_temperature;BME280_humidity;BME280_pressure;Samples;Min_cycle;Max_cycle;Signal;HPM_P1;HPM_P2
2022/01/01 00:00:44;;;;;;;57.63;52.87;;;;;;;14.27;100.00;102184.41;1842203;76;86414;-72
2022/01/01 00:06:28;;;;;;;57.20;52.30;;;;;;;14.28;100.00;102195.03;1890554;74;86819;-75
2022/01/01 00:12:14;;;;;;;57.70;52.70;;;;;;;14.26;100.00;102191.67;1918879;72;86251;-78
2022/01/01 00:18:00;;;;;;;64.30;58.37;;;;;;;14.25;100.00;102190.02;1944967;71;39697;-68
2022/01/01 00:23:44;;;;;;;66.87;60.83;;;;;;;14.25;100.00;102178.83;1836871;76;86739;-72
2022/01/01 00:29:27;;;;;;;62.07;56.33;;;;;;;14.29;100.00;102179.37;1883211;73;86466;-70
2022/01/01 00:35:11;;;;;;;67.90;62.00;;;;;;;14.28;100.00;102163.73;1918817;72;86467;-74
2022/01/01 00:40:56;;;;;;;65.70;59.53;;;;;;;14.34;100.00;102180.77;1942779;71;39623;-75
2022/01/01 00:46:40;;;;;;;70.20;63.63;;;;;;;14.35;100.00;102183.02;1948091;72;86270;-76
2022/01/01 00:52:24;;;;;;;66.80;60.13;;;;;;;14.41;100.00;102172.16;1885578;74;85869;-70
2022/01/01 00:58:09;;;;;;;66.07;60.33;;;;;;;14.41;100.00;102173.00;1934670;72;86685;-69
2022/01/01 01:03:53;;;;;;;60.57;55.43;;;;;;;14.42;100.00;102171.86;1981251;71;39604;-71
2022/01/01 01:09:38;;;;;;;60.70;55.33;;;;;;;14.43;100.00;102187.53;1844822;76;86885;-78
2022/01/01 01:15:24;;;;;;;67.30;61.77;;;;;;;14.41;100.00;102191.73;1873542;75;86708;-70
2022/01/01 01:21:09;;;;;;;66.50;60.80;;;;;;;14.44;100.00;102171.05;1917915;74;86262;-71
2022/01/01 01:26:53;;;;;;;61.27;56.17;;;;;;;14.45;100.00;102162.09;1974109;71;40132;-75
2022/01/01 01:32:36;;;;;;;63.97;58.50;;;;;;;14.49;100.00;102163.22;1844557;76;86802;-74
2022/01/01 01:38:22;;;;;;;60.43;55.40;;;;;;;14.41;100.00;102157.62;1877932;75;86579;-71
2022/01/01 01:44:26;;;;;;;62.17;56.97;;;;;;;14.41;100.00;102161.82;1910772;73;86321;-70
2022/01/01 01:50:13;;;;;;;60.73;55.50;;;;;;;14.43;100.00;102151.19;1911645;74;85948;-75
2022/01/01 01:56:01;;;;;;;60.00;54.77;;;;;;;14.42;100.00;102158.44;1981035;71;39716;-72
2022/01/01 02:01:48;;;;;;;58.13;53.13;;;;;;;14.44;100.00;102168.24;1834313;76;86217;-71
2022/01/01 02:07:33;;;;;;;57.27;52.07;;;;;;;14.40;100.00;102154.55;1798928;78;86202;-75
2022/01/01 02:13:25;;;;;;;58.10;52.77;;;;;;;14.44;100.00;102156.22;1884386;73;85544;-75
2022/01/01 02:19:06;;;;;;;58.13;53.13;;;;;;;14.42;100.00;102165.43;1924623;73;86568;-75
2022/01/01 02:24:51;;;;;;;61.33;56.03;;;;;;;14.43;100.00;102196.47;1985826;71;39524;-72
2022/01/01 02:30:34;;;;;;;59.87;54.60;;;;;;;14.39;100.00;102205.98;1886423;74;85972;-75
2022/01/01 02:36:29;;;;;;;58.73;53.43;;;;;;;14.44;100.00;102208.78;2022674;69;86750;-73
2022/01/01 02:42:19;;;;;;;58.23;53.23;;;;;;;14.41;100.00;102201.52;1918367;73;86722;-73
2022/01/01 02:48:00;;;;;;;58.67;53.97;;;;;;;14.38;100.00;102200.10;1982366;71;39776;-71
2022/01/01 02:53:46;;;;;;;59.00;54.07;;;;;;;14.37;100.00;102186.42;1836666;76;86237;-71
2022/01/01 02:59:31;;;;;;;57.07;51.80;;;;;;;14.40;100.00;102187.25;1797467;78;86606;-75
2022/01/01 03:05:16;;;;;;;57.73;52.87;;;;;;;14.43;100.00;102193.13;1905847;72;86272;-71
2022/01/01 03:11:02;;;;;;;59.10;54.43;;;;;;;14.41;100.00;102195.92;1982840;71;39684;-73
2022/01/01 03:16:46;;;;;;;58.13;53.33;;;;;;;14.38;100.00;102202.05;1803831;78;85526;-74
2022/01/01 03:22:30;;;;;;;57.30;52.83;;;;;;;14.37;100.00;102208.23;1807262;78;86440;-73
2022/01/01 03:28:13;;;;;;;54.20;49.70;;;;;;;14.40;100.00;102198.44;1907230;72;86428;-77
2022/01/01 03:33:58;;;;;;;58.63;53.70;;;;;;;14.40;100.00;102190.89;1948060;71;39684;-77
2022/01/01 03:39:42;;;;;;;55.73;51.30;;;;;;;14.37;100.00;102181.67;1879161;75;86566;-73
2022/01/01 03:45:26;;;;;;;56.63;51.77;;;;;;;14.32;100.00;102175.20;1901634;74;86165;-77
2022/01/01 03:51:10;;;;;;;55.80;51.50;;;;;;;14.28;100.00;102178.27;1917565;74;87021;-74
2022/01/01 03:56:56;;;;;;;58.97;54.17;;;;;;;14.27;100.00;102173.78;1981518;71;39492;-74
2022/01/01 04:02:40;;;;;;;60.97;56.27;;;;;;;14.12;100.00;102153.62;1972414;71;86411;-72
2022/01/01 04:08:25;;;;;;;58.33;53.73;;;;;;;14.10;100.00;102153.09;1893731;73;86448;-73
2022/01/01 04:14:12;;;;;;;56.63;52.30;;;;;;;13.99;100.00;102143.02;1910754;73;86227;-71
2022/01/01 04:19:55;;;;;;;57.33;52.87;;;;;;;13.95;100.00;102143.27;1985713;71;39570;-71
2022/01/01 04:28:54;;;;;;;54.80;50.10;;;;;;;13.98;100.00;102135.20;1979238;71;39688;-74
2022/01/01 04:34:38;;;;;;;55.10;50.83;;;;;;;13.99;100.00;102133.24;1816260;76;86395;-75
2022/01/01 04:40:22;;;;;;;58.03;53.73;;;;;;;14.01;100.00;102126.25;1870599;75;86456;-74
2022/01/01 04:46:06;;;;;;;53.50;49.43;;;;;;;14.03;100.00;102121.20;1943074;73;86573;-74
2022/01/01 04:51:59;;;;;;;57.27;52.57;;;;;;;14.04;100.00;102117.30;1937017;71;39715;-74
2022/01/01 04:57:44;;;;;;;52.90;49.00;;;;;;;14.01;100.00;102106.69;1854156;76;86686;-73
2022/01/01 05:03:30;;;;;;;54.23;49.83;;;;;;;13.95;100.00;102109.74;1807685;78;86170;-73
2022/01/01 05:09:14;;;;;;;54.93;50.63;;;;;;;14.00;100.00;102101.37;1908584;73;86388;-74
2022/01/01 05:14:58;;;;;;;53.40;49.30;;;;;;;13.98;100.00;102082.11;1983459;71;39576;-73
2022/01/01 05:20:42;;;;;;;52.87;49.07;;;;;;;14.01;100.00;102077.91;1861075;76;86522;-73
2022/01/01 05:26:26;;;;;;;54.43;50.53;;;;;;;13.99;100.00;102053.63;1911459;74;87291;-74
2022/01/01 05:32:10;;;;;;;55.23;51.00;;;;;;;13.95;100.00;102057.51;1907419;72;86267;-76
2022/01/01 05:37:54;;;;;;;52.93;49.03;;;;;;;13.91;100.00;102031.25;1981454;71;39436;-74
2022/01/01 05:43:38;;;;;;;51.20;47.50;;;;;;;13.93;100.00;102023.44;1838213;75;86452;-74
2022/01/01 05:49:23;;;;;;;54.93;50.93;;;;;;;13.98;100.00;102018.41;1851583;76;86413;-71
2022/01/01 05:55:08;;;;;;;51.67;47.83;;;;;;;13.94;100.00;101996.34;1909727;73;86450;-74
2022/01/01 06:00:53;;;;;;;49.20;45.70;;;;;;;13.93;100.00;101992.72;1978706;71;39475;-74
2022/01/01 06:06:37;;;;;;;52.70;48.87;;;;;;;13.99;100.00;101995.77;1831992;76;86822;-71
2022/01/01 06:12:21;;;;;;;52.37;48.57;;;;;;;14.01;100.00;101988.51;1875674;75;86475;-73
2022/01/01 06:18:05;;;;;;;50.93;46.63;;;;;;;13.99;100.00;101979.00;1909678;72;86369;-71
2022/01/01 06:23:49;;;;;;;52.53;48.30;;;;;;;13.99;100.00;101960.84;1981338;71;39508;-74
2022/01/01 06:29:35;;;;;;;52.97;48.80;;;;;;;14.02;100.00;101958.91;1884973;74;86715;-71
2022/01/01 06:35:20;;;;;;;50.07;46.40;;;;;;;13.99;100.00;101946.88;1887607;75;86138;-73
2022/01/01 06:41:04;;;;;;;53.90;49.30;;;;;;;13.96;100.00;101949.40;1911667;73;86124;-76
2022/01/01 06:46:48;;;;;;;59.97;55.77;;;;;;;13.83;100.00;101931.81;1927687;71;39617;-75
2022/01/01 06:52:32;;;;;;;60.07;55.43;;;;;;;13.74;100.00;101933.48;1885375;74;86498;-72
2022/01/01 06:58:17;;;;;;;56.83;52.63;;;;;;;13.65;100.00;101927.08;1912293;74;86498;-72
2022/01/01 07:04:01;;;;;;;59.03;54.67;;;;;;;13.68;100.00;101918.72;1923798;73;86532;-72
2022/01/01 07:09:46;;;;;;;54.57;50.20;;;;;;;13.63;100.00;101936.31;1969543;69;86822;-72
2022/01/01 07:15:32;;;;;;;50.27;46.73;;;;;;;13.61;100.00;101927.36;1808578;78;86521;-76
2022/01/01 07:21:16;;;;;;;52.37;48.73;;;;;;;13.58;100.00;101939.09;1910263;74;86981;-78
2022/01/01 07:27:00;;;;;;;48.07;44.47;;;;;;;13.54;100.00;101935.73;1971418;70;39750;-73
2022/01/01 07:32:45;;;;;;;53.43;49.63;;;;;;;13.50;100.00;101918.72;1819278;76;86286;-74
2022/01/01 07:38:30;;;;;;;52.60;48.90;;;;;;;13.47;100.00;101924.02;1795041;78;86472;-73
2022/01/01 07:44:15;;;;;;;51.80;48.23;;;;;;;13.40;100.00;101929.86;1903287;72;86314;-73
2022/01/01 07:49:59;;;;;;;48.77;45.47;;;;;;;13.38;100.00;101915.92;1920215;71;40567;-75
2022/01/01 07:55:43;;;;;;;60.90;56.47;;;;;;;13.40;100.00;101919.25;1844600;76;86498;-75
2022/01/01 08:01:27;;;;;;;57.57;53.43;;;;;;;13.28;100.00;101916.73;1882908;73;86542;-72
2022/01/01 08:07:14;;;;;;;54.40;50.27;;;;;;;13.29;100.00;101914.23;1938480;73;86550;-83
2022/01/01 08:12:59;;;;;;;58.03;53.80;;;;;;;13.29;100.00;101918.42;1978341;71;39698;-83
2022/01/01 08:18:43;;;;;;;60.23;55.83;;;;;;;13.23;100.00;101898.03;1827577;76;86348;-80
2022/01/01 08:24:27;;;;;;;57.17;53.03;;;;;;;13.13;100.00;101899.44;1889809;73;86969;-79
2022/01/01 08:30:14;;;;;;;59.37;55.30;;;;;;;13.19;100.00;101893.29;1907290;73;85731;-71
2022/01/01 08:35:59;;;;;;;58.80;54.73;;;;;;;13.18;100.00;101910.58;1981056;71;39454;-75
2022/01/01 08:41:43;;;;;;;57.87;53.67;;;;;;;13.17;100.00;101894.98;1829082;76;86613;-75
2022/01/01 08:47:27;;;;;;;61.47;57.03;;;;;;;13.21;100.00;101896.09;1882189;73;86552;-78
2022/01/01 08:53:12;;;;;;;62.07;57.50;;;;;;;13.30;100.00;101920.11;1927097;71;85591;-74
2022/01/01 08:58:56;;;;;;;64.13;60.03;;;;;;;13.26;100.00;101893.03;1986205;71;39610;-71
2022/01/01 09:04:40;;;;;;;63.30;59.00;;;;;;;13.29;100.00;101869.59;1838855;75;85663;-79
2022/01/01 09:10:25;;;;;;;59.53;55.10;;;;;;;13.35;100.00;101864.86;1872407;75;86072;-75
2022/01/01 09:16:11;;;;;;;59.10;54.67;;;;;;;13.48;100.00;101874.88;1911673;74;86465;-71
2022/01/01 09:21:55;;;;;;;58.30;54.40;;;;;;;13.54;100.00;101898.89;1985449;71;39623;-71
2022/01/01 09:30:53;;;;;;;63.37;59.27;;;;;;;13.71;100.00;101894.97;1988007;70;39589;-77
2022/01/01 09:36:38;;;;;;;60.83;56.73;;;;;;;13.82;100.00;101861.73;1840794;76;86307;-76
2022/01/01 09:42:24;;;;;;;59.57;55.60;;;;;;;13.78;100.00;101857.84;1909507;73;86690;-75
2022/01/01 09:48:09;;;;;;;56.33;52.43;;;;;;;13.82;100.00;101863.13;1907825;72;85240;-75
2022/01/01 09:53:57;;;;;;;55.83;52.00;;;;;;;13.92;100.00;101871.47;1985255;70;39752;-75
2022/01/01 09:59:41;;;;;;;52.20;48.90;;;;;;;14.05;100.00;101867.53;1841996;76;85830;-79
2022/01/01 10:05:26;;;;;;;51.53;48.10;;;;;;;14.24;100.00;101853.79;1879361;73;85598;-74
2022/01/01 10:11:14;;;;;;;55.43;52.10;;;;;;;14.26;100.00;101864.11;1933017;73;86292;-79
2022/01/01 10:16:59;;;;;;;53.63;50.30;;;;;;;14.26;100.00;101864.11;1979996;71;39685;-76
2022/01/01 10:22:52;;;;;;;54.67;51.27;;;;;;;14.40;100.00;101858.77;1804558;78;86297;-79
2022/01/01 10:28:36;;;;;;;51.47;48.17;;;;;;;14.59;100.00;101852.23;1876521;74;86373;-73
2022/01/01 10:34:26;;;;;;;50.63;47.40;;;;;;;14.78;100.00;101847.39;1907562;73;86892;-78
2022/01/01 10:40:13;;;;;;;49.63;46.73;;;;;;;14.76;100.00;101857.45;1914798;74;86707;-76
2022/01/01 10:49:34;;;;;;;50.43;47.53;;;;;;;14.94;100.00;101847.55;1933446;72;86394;-75
2022/01/01 10:52:20;;;;;;;48.53;45.40;;;;;;;14.94;100.00;101869.38;1868646;74;938734;-75
2022/01/01 10:54:52;;;;;;;50.03;46.57;;;;;;;15.00;100.00;101858.44;1856518;74;940874;-76
2022/01/01 10:57:28;;;;;;;49.53;46.33;;;;;;;15.09;100.00;101853.06;1869315;75;938851;-76
2022/01/01 11:00:14;;;;;;;47.97;44.87;;;;;;;15.14;100.00;101850.78;1855605;75;940806;-78
2022/01/01 11:02:48;;;;;;;44.98;42.08;;;;;;;15.16;100.00;101836.77;1856555;74;940936;-76
2022/01/01 11:05:27;;;;;;;48.90;45.73;;;;;;;15.20;100.00;101828.05;1868209;75;940888;-76
2022/01/01 11:07:58;;;;;;;49.97;46.50;;;;;;;15.26;100.00;101831.66;1855295;74;939490;-75
2022/01/01 11:10:29;;;;;;;51.00;47.70;;;;;;;15.24;100.00;101834.73;1869601;74;938841;-76
2022/01/01 11:13:02;;;;;;;48.23;45.03;;;;;;;15.29;100.00;101847.85;1855227;74;939730;-79
2022/01/01 11:15:33;;;;;;;50.60;47.30;;;;;;;15.31;100.00;101842.81;1869799;75;938935;-76
2022/01/01 11:18:03;;;;;;;53.87;50.43;;;;;;;15.31;100.00;101840.85;1869132;75;940674;-79
2022/01/01 11:20:35;;;;;;;45.10;42.13;;;;;;;15.43;100.00;101834.86;1868069;74;938973;-80
2022/01/01 11:23:09;;;;;;;47.90;44.97;;;;;;;15.51;100.00;101826.41;1869577;75;940714;-76
2022/01/01 11:28:54;;;;;;;47.10;44.00;;;;;;;15.61;100.00;101830.53;1986600;71;39547;-75
2022/01/01 11:34:42;;;;;;;47.63;44.47;;;;;;;15.59;100.00;101823.81;1842581;76;86871;-75
2022/01/01 11:40:30;;;;;;;46.03;42.63;;;;;;;15.73;100.00;101820.59;1886022;74;86494;-74
2022/01/01 11:46:16;;;;;;;48.13;44.77;;;;;;;15.76;100.00;101806.55;1922340;73;86374;-75
2022/01/01 11:52:06;;;;;;;48.90;45.50;;;;;;;15.75;100.00;101788.90;1923472;72;86213;-75
2022/01/01 11:58:01;;;;;;;50.00;46.70;;;;;;;15.74;100.00;101792.02;1963558;71;39531;-75
2022/01/01 12:03:55;;;;;;;53.60;50.07;;;;;;;15.70;100.00;101782.54;1810484;78;85539;-76
2022/01/01 12:09:50;;;;;;;51.20;47.87;;;;;;;15.70;100.00;101779.14;1845037;76;86148;-75
2022/01/01 12:15:50;;;;;;;50.53;47.10;;;;;;;15.73;100.00;101772.97;1880120;74;86332;-73
2022/01/01 12:21:41;;;;;;;52.13;48.27;;;;;;;15.72;100.00;101771.86;1890561;74;85471;-73
2022/01/01 12:30:57;;;;;;;51.30;47.60;;;;;;;15.70;100.00;101750.33;1977162;71;39564;-75
2022/01/01 12:36:47;;;;;;;52.97;49.23;;;;;;;15.96;100.00;101716.63;1835300;75;86173;-74
2022/01/01 12:42:34;;;;;;;52.37;48.60;;;;;;;15.79;100.00;101717.69;1883073;74;86429;-78
2022/01/01 12:48:25;;;;;;;50.20;46.43;;;;;;;15.71;100.00;101721.16;1886640;74;86613;-77
2022/01/01 12:54:16;;;;;;;53.83;50.33;;;;;;;15.72;100.00;101697.63;1938835;72;86484;-77
2022/01/01 13:00:20;;;;;;;55.50;51.30;;;;;;;15.74;100.00;101700.41;1816170;78;86587;-76
2022/01/01 13:06:04;;;;;;;53.53;50.00;;;;;;;15.71;100.00;101712.75;1950496;72;86048;-75
2022/01/01 13:11:56;;;;;;;56.93;53.07;;;;;;;15.63;100.00;101717.05;1985418;71;40401;-74
2022/01/01 13:17:43;;;;;;;59.40;55.27;;;;;;;15.53;100.00;101686.95;1838564;75;86353;-73
2022/01/01 13:23:28;;;;;;;60.10;55.73;;;;;;;15.53;100.00;101686.39;1884522;73;85537;-75
2022/01/01 13:29:12;;;;;;;59.90;55.70;;;;;;;15.54;100.00;101672.62;1937118;73;86352;-76
2022/01/01 13:34:58;;;;;;;61.83;57.53;;;;;;;15.47;100.00;101694.53;1944563;71;39633;-74
2022/01/01 13:40:45;;;;;;;63.43;59.17;;;;;;;15.41;100.00;101692.91;1886359;74;85540;-76
2022/01/01 13:46:31;;;;;;;61.23;56.40;;;;;;;15.47;100.00;101682.77;1809192;78;85801;-76
2022/01/01 13:52:22;;;;;;;59.47;55.00;;;;;;;15.47;100.00;101674.37;1908691;74;86998;-76
2022/01/01 13:58:10;;;;;;;59.97;55.83;;;;;;;15.48;100.00;101732.61;1912096;74;86799;-74
2022/01/01 14:03:57;;;;;;;61.30;56.80;;;;;;;15.60;100.00;101705.62;1978890;71;39604;-75
2022/01/01 14:10:03;;;;;;;60.43;56.33;;;;;;;15.40;100.00;101759.27;1847572;75;86431;-76
2022/01/01 14:15:48;;;;;;;60.43;55.63;;;;;;;15.40;100.00;101741.06;1979776;71;39693;-75
2022/01/01 14:21:41;;;;;;;61.60;57.60;;;;;;;15.37;100.00;101740.83;1840987;76;86420;-75
2022/01/01 14:27:29;;;;;;;61.17;56.43;;;;;;;15.29;100.00;101753.52;1762522;80;86828;-77
2022/01/01 14:33:13;;;;;;;64.90;59.87;;;;;;;15.12;100.00;101769.07;1915295;74;86500;-80
2022/01/01 14:38:58;;;;;;;62.73;58.17;;;;;;;15.35;100.00;101762.14;1931557;71;39640;-77
2022/01/01 14:44:42;;;;;;;62.60;57.87;;;;;;;15.17;100.00;101775.47;1832297;75;86511;-76
2022/01/01 14:50:33;;;;;;;67.13;62.13;;;;;;;15.06;100.00;101760.47;1810649;78;86558;-76
2022/01/01 14:56:31;;;;;;;66.00;61.10;;;;;;;14.98;100.00;101764.70;1885167;75;86611;-78
2022/01/01 15:02:19;;;;;;;64.77;59.90;;;;;;;14.92;100.00;101750.50;1838186;76;86676;-74
2022/01/01 15:08:05;;;;;;;63.17;58.63;;;;;;;14.81;100.00;101765.68;1919529;72;86739;-80
2022/01/01 15:13:51;;;;;;;64.33;59.50;;;;;;;14.70;100.00;101769.13;1987183;71;39627;-75
2022/01/01 15:19:37;;;;;;;70.37;65.33;;;;;;;14.74;100.00;101760.43;1814526;76;86494;-72
2022/01/01 15:25:26;;;;;;;70.33;65.23;;;;;;;14.67;100.00;101782.30;1882002;74;86101;-71
2022/01/01 15:31:20;;;;;;;68.80;63.60;;;;;;;14.70;100.00;101764.94;1918260;73;86524;-74
2022/01/01 15:37:03;;;;;;;71.37;66.37;;;;;;;14.68;100.00;101783.95;1976094;71;39627;-74
2022/01/01 15:42:48;;;;;;;69.97;64.63;;;;;;;14.65;100.00;101776.70;1892051;74;86514;-74
2022/01/01 15:48:33;;;;;;;65.63;60.47;;;;;;;14.68;100.00;101778.92;1801212;78;86437;-74
2022/01/01 15:54:17;;;;;;;73.37;67.87;;;;;;;14.61;100.00;101771.42;1877647;75;85478;-77
2022/01/01 16:00:13;;;;;;;68.33;63.47;;;;;;;14.69;100.00;101781.99;1903016;72;86734;-71
2022/01/01 16:06:12;;;;;;;65.63;59.97;;;;;;;14.63;100.00;101765.84;1907905;74;86585;-73
2022/01/01 16:11:57;;;;;;;65.80;60.97;;;;;;;14.56;100.00;101747.12;1983015;71;39766;-70
2022/01/01 16:17:44;;;;;;;73.73;68.43;;;;;;;14.50;100.00;101737.12;1837414;76;86507;-70
2022/01/01 16:23:30;;;;;;;69.33;63.53;;;;;;;14.36;100.00;101745.31;1835893;76;86344;-71
2022/01/01 16:29:14;;;;;;;69.40;64.37;;;;;;;14.40;100.00;101761.78;1933286;73;86698;-73
2022/01/01 16:34:58;;;;;;;65.83;60.47;;;;;;;14.49;100.00;101774.58;1986437;71;39713;-73
2022/01/01 16:40:51;;;;;;;67.27;61.90;;;;;;;14.50;100.00;101756.11;1839876;76;86970;-73
2022/01/01 16:46:39;;;;;;;67.83;62.00;;;;;;;14.48;100.00;101743.55;1845038;76;85553;-77
2022/01/01 16:55:42;;;;;;;67.77;62.50;;;;;;;14.50;100.00;101768.69;1827462;76;86384;-72
2022/01/01 17:01:30;;;;;;;65.63;60.47;;;;;;;14.56;100.00;101756.91;1891705;73;86419;-78
2022/01/01 17:04:04;;;;;;;65.77;60.33;;;;;;;14.53;100.00;101764.49;1841368;75;938734;-76
2022/01/01 17:06:36;;;;;;;65.57;59.70;;;;;;;14.57;100.00;101756.64;1882161;74;939126;-77
2022/01/01 17:12:21;;;;;;;60.67;55.20;;;;;;;14.57;100.00;101737.06;1890082;73;86313;-73
2022/01/01 17:18:08;;;;;;;64.93;59.53;;;;;;;14.65;100.00;101759.93;1923450;74;86731;-75
2022/01/01 17:24:04;;;;;;;65.13;59.63;;;;;;;14.69;100.00;101765.22;1985371;71;39671;-80
2022/01/01 17:29:50;;;;;;;66.20;60.30;;;;;;;14.71;100.00;101735.85;1803321;79;86482;-77
2022/01/01 17:35:48;;;;;;;64.77;59.63;;;;;;;14.67;100.00;101768.87;1815869;76;86432;-73
2022/01/01 17:44:33;;;;;;;64.73;59.47;;;;;;;14.62;100.00;101788.48;1875688;76;86675;-72
2022/01/01 17:53:39;;;;;;;62.47;57.03;;;;;;;14.65;100.00;101745.95;1845759;76;86098;-78
2022/01/01 18:02:42;;;;;;;61.70;56.17;;;;;;;14.67;100.00;101756.30;1981479;69;85436;-74
2022/01/01 18:08:30;;;;;;;62.67;57.47;;;;;;;14.68;100.00;101758.78;1872158;74;86863;-69
2022/01/01 18:14:11;;;;;;;63.30;58.30;;;;;;;14.65;100.00;101744.55;1869249;75;86165;-71
2022/01/01 18:16:43;;;;;;;64.40;58.63;;;;;;;14.57;100.00;101756.64;1792026;78;938619;-73
2022/01/01 18:22:33;;;;;;;64.80;59.07;;;;;;;14.63;100.00;101738.43;1809132;78;86398;-70
2022/01/01 18:28:22;;;;;;;66.73;60.57;;;;;;;14.61;100.00;101722.48;1813765;79;86124;-73
2022/01/01 18:37:14;;;;;;;62.97;57.40;;;;;;;14.46;100.00;101719.27;1919273;74;86891;-73
2022/01/01 18:39:46;;;;;;;62.27;56.65;;;;;;;14.44;100.00;101720.94;1856718;75;938839;-75
2022/01/01 18:42:18;;;;;;;65.60;59.57;;;;;;;14.43;100.00;101726.25;1871639;74;942303;-75
2022/01/01 18:44:49;;;;;;;61.20;55.70;;;;;;;14.44;100.00;101718.14;1798450;77;940901;-73
2022/01/01 18:47:20;;;;;;;65.27;59.37;;;;;;;14.41;100.00;101699.72;1838403;75;940728;-74
2022/01/01 18:49:50;;;;;;;62.38;56.20;;;;;;;14.38;100.00;101694.13;1827218;75;940954;-75
2022/01/01 18:52:23;;;;;;;62.83;57.20;;;;;;;14.43;100.00;101691.86;1811454;76;941034;-73
2022/01/01 18:58:06;;;;;;;63.40;58.43;;;;;;;14.41;100.00;101683.79;1931037;69;40288;-73
2022/01/01 19:00:40;;;;;;;68.87;63.07;;;;;;;14.36;100.00;101695.56;1830102;75;939117;-70
2022/01/01 19:03:13;;;;;;;67.03;61.13;;;;;;;14.31;100.00;101709.53;1780229;78;940894;-69
2022/01/01 19:09:00;;;;;;;67.50;61.53;;;;;;;14.39;100.00;101676.80;1978587;71;39457;-74
2022/01/01 19:14:49;;;;;;;66.93;61.30;;;;;;;14.44;100.00;101690.75;1985209;71;40453;-72
2022/01/01 19:20:41;;;;;;;64.37;58.27;;;;;;;14.50;100.00;101689.59;1823905;76;86548;-73
2022/01/01 19:26:31;;;;;;;66.60;61.10;;;;;;;14.62;100.00;101687.81;1797832;78;86505;-72
2022/01/01 19:32:17;;;;;;;63.97;58.30;;;;;;;14.58;100.00;101696.80;1909589;74;86137;-73
2022/01/01 19:38:06;;;;;;;66.57;60.67;;;;;;;14.53;100.00;101677.27;1932602;73;86381;-73
2022/01/01 19:43:54;;;;;;;68.90;62.83;;;;;;;14.54;100.00;101673.34;1984656;71;39544;-70
2022/01/01 19:46:27;;;;;;;63.87;58.17;;;;;;;14.51;100.00;101673.91;1912580;73;937022;-71
2022/01/01 19:52:12;;;;;;;62.43;57.50;;;;;;;14.57;100.00;101660.17;1914913;74;86471;-75
2022/01/01 19:57:56;;;;;;;68.03;62.17;;;;;;;14.53;100.00;101647.06;1966864;71;39574;-74
2022/01/01 20:03:40;;;;;;;64.87;59.47;;;;;;;14.53;100.00;101663.84;1841874;76;86368;-71
2022/01/01 20:09:24;;;;;;;65.63;60.30;;;;;;;14.49;100.00;101665.55;1900490;74;86429;-73
2022/01/01 20:15:09;;;;;;;62.00;56.77;;;;;;;14.61;100.00;101674.95;1912816;74;86361;-71
2022/01/01 20:20:54;;;;;;;66.03;60.10;;;;;;;14.58;100.00;101674.44;1985783;71;39555;-73
2022/01/01 20:29:55;;;;;;;64.07;58.23;;;;;;;14.50;100.00;101662.45;1937365;71;39611;-74
2022/01/01 20:35:42;;;;;;;61.80;56.20;;;;;;;14.52;100.00;101695.16;1842461;76;86827;-75
2022/01/01 20:41:26;;;;;;;66.13;59.90;;;;;;;14.53;100.00;101675.86;1886651;73;85571;-70
2022/01/01 20:47:11;;;;;;;66.63;60.90;;;;;;;14.52;100.00;101657.41;1920911;74;86145;-73
2022/01/01 20:52:56;;;;;;;66.40;60.83;;;;;;;14.53;100.00;101642.31;1954269;71;39560;-73
2022/01/01 20:58:40;;;;;;;66.07;59.93;;;;;;;14.54;100.00;101663.56;1844853;76;86580;-74
2022/01/01 21:04:27;;;;;;;67.63;61.27;;;;;;;14.55;100.00;101658.77;1903348;74;86494;-74
2022/01/01 21:10:12;;;;;;;67.63;62.37;;;;;;;14.53;100.00;101640.08;1915290;74;86487;-73
2022/01/01 21:15:58;;;;;;;65.50;59.60;;;;;;;14.53;100.00;101635.33;1939701;71;39807;-71
2022/01/01 21:21:43;;;;;;;65.30;59.23;;;;;;;14.48;100.00;101649.34;1846739;76;86632;-75
2022/01/01 21:27:27;;;;;;;65.53;59.50;;;;;;;14.47;100.00;101631.45;1832647;75;86519;-75
2022/01/01 21:33:10;;;;;;;64.80;58.97;;;;;;;14.53;100.00;101622.74;1937057;73;86855;-76
2022/01/01 21:38:55;;;;;;;61.87;56.47;;;;;;;14.52;100.00;101609.88;1981384;71;39693;-73
2022/01/01 21:44:39;;;;;;;61.87;56.47;;;;;;;14.48;100.00;101599.58;1981430;72;86402;-75
2022/01/01 21:50:24;;;;;;;64.70;58.83;;;;;;;14.42;100.00;101592.34;1871896;75;85492;-78
2022/01/01 21:56:10;;;;;;;66.17;60.10;;;;;;;14.41;100.00;101590.70;1937919;73;86512;-72
2022/01/01 22:01:55;;;;;;;63.87;58.47;;;;;;;14.37;100.00;101589.06;1922689;71;39675;-71
2022/01/01 22:07:39;;;;;;;63.07;57.33;;;;;;;14.39;100.00;101584.56;1835764;76;85416;-71
2022/01/01 22:13:27;;;;;;;61.30;55.97;;;;;;;14.42;100.00;101569.98;1914585;73;86836;-74
2022/01/01 22:19:11;;;;;;;63.67;58.10;;;;;;;14.38;100.00;101570.30;1920176;73;86267;-77
2022/01/01 22:24:57;;;;;;;66.80;61.33;;;;;;;14.40;100.00;101558.28;1983245;71;39457;-76
2022/01/01 22:30:40;;;;;;;61.23;56.07;;;;;;;14.38;100.00;101555.77;1848417;76;86547;-75
2022/01/01 22:36:24;;;;;;;65.27;59.67;;;;;;;14.39;100.00;101559.41;1869006;74;86450;-71
2022/01/01 22:42:09;;;;;;;67.17;60.93;;;;;;;14.32;100.00;101547.15;1950337;71;86258;-74
2022/01/01 22:47:54;;;;;;;62.47;57.70;;;;;;;14.35;100.00;101546.59;1977993;71;39589;-74
2022/01/01 22:53:39;;;;;;;63.77;58.63;;;;;;;14.33;100.00;101537.64;1836043;75;86301;-71
2022/01/01 22:59:23;;;;;;;68.87;63.07;;;;;;;14.37;100.00;101528.13;1884648;73;86701;-77
2022/01/01 23:05:08;;;;;;;64.30;58.57;;;;;;;14.37;100.00;101519.75;1930657;73;86520;-74
2022/01/01 23:10:54;;;;;;;65.37;59.87;;;;;;;14.40;100.00;101499.59;1985283;71;39693;-76
2022/01/01 23:16:43;;;;;;;64.73;59.47;;;;;;;14.42;100.00;101499.55;1950381;72;86256;-72
2022/01/01 23:22:27;;;;;;;66.43;61.00;;;;;;;14.45;100.00;101486.96;1868504;75;86337;-71
2022/01/01 23:28:15;;;;;;;69.13;63.63;;;;;;;14.43;100.00;101473.27;1936809;73;86668;-71
2022/01/01 23:34:07;;;;;;;71.00;65.47;;;;;;;14.46;100.00;101471.27;1831825;78;86566;-76
2022/01/01 23:39:52;;;;;;;71.47;66.20;;;;;;;14.50;100.00;101472.94;1974713;71;39562;-70
2022/01/01 23:45:41;;;;;;;72.40;66.97;;;;;;;14.53;100.00;101478.77;1844242;76;86751;-75
2022/01/01 23:51:26;;;;;;;68.33;63.43;;;;;;;14.58;100.00;101473.12;1883255;74;85809;-75
2022/01/01 23:54:02;;;;;;;69.23;64.77;;;;;;;14.54;100.00;101476.24;1848192;74;938851;-70
2022/01/01 23:59:54;;;;;;;67.23;62.80;;;;;;;14.54;100.00;101465.06;1987154;71;39566;-74
